Campbell, California
Current Conditions -  °F | °C
As of 4:53 PM on Wednesday 22 Oct 2014 (Local Time) from KSJC Reporting Station
Few Clouds Few Clouds  
Wind Chill: 72°   Ceiling: Unl
Heat Index: 72°   Visibility: 10mi
Dew Point: 46°   Wind: 8mph
Humidity: 40%   Direction: 310°NW
Pressure: 30"   Gusts: NA
Location:  37.29°N, 121.94°W
Report Text: KSJC 222353Z 31007KT 10SM FEW090 22/08 A3000 RMK AO2 SLP159 T02220078 10222 20172 56014
Loading
Personal Weather Stations






























Interactive Weather Map
Tropical Storm Tracking
New forecast layout! Learn more

10-Day Weather Forecast

Advertisements
Track Severe Weather on mobile